Time;durP1;ratioP1;P1;durP2;ratioP2;P2;SDS_P1;SDS_P2;PMS_P1;PMS_P2;Temp;Humidity;BMP_temperature;BMP_pressure;BME280_temperature;BME280_humidity;BME280_pressure;Samples;Min_cycle;Max_cycle;Signal;HPM_P1;HPM_P2
2023/04/10 00:00:09;;;;;;;83.30;37.17;;;7.80;99.90;;;;;;5030088;28;20111;-83
2023/04/10 00:02:36;;;;;;;79.78;39.85;;;7.70;99.90;;;;;;5053593;28;20039;-84
2023/04/10 00:05:03;;;;;;;87.95;39.25;;;7.70;99.90;;;;;;5036790;28;20044;-85
2023/04/10 00:07:28;;;;;;;84.57;37.33;;;7.60;99.90;;;;;;5054554;28;20101;-84
2023/04/10 00:09:54;;;;;;;82.55;37.00;;;7.60;99.90;;;;;;5036511;28;20116;-83
2023/04/10 00:12:20;;;;;;;76.25;34.67;;;7.60;99.90;;;;;;5036768;28;20105;-83
2023/04/10 00:14:46;;;;;;;84.57;35.83;;;7.50;99.90;;;;;;5036618;28;20028;-83
2023/04/10 00:17:12;;;;;;;78.13;34.97;;;7.50;99.90;;;;;;5036301;28;20051;-83
2023/04/10 00:19:38;;;;;;;102.15;40.63;;;7.40;99.90;;;;;;5036559;28;20039;-84
2023/04/10 00:22:04;;;;;;;103.68;43.05;;;7.40;99.90;;;;;;5036017;28;20110;-83
2023/04/10 00:24:30;;;;;;;110.68;44.30;;;7.40;99.90;;;;;;5054498;28;20031;-84
2023/04/10 00:26:56;;;;;;;93.85;38.67;;;7.30;99.90;;;;;;5036433;28;20029;-84
2023/04/10 00:29:22;;;;;;;100.78;42.25;;;7.30;99.90;;;;;;5054243;28;20440;-84
2023/04/10 00:31:48;;;;;;;95.88;41.95;;;7.30;99.90;;;;;;5032006;28;20029;-83
2023/04/10 00:34:15;;;;;;;85.82;38.22;;;7.30;99.90;;;;;;5033594;28;20033;-83
2023/04/10 00:36:41;;;;;;;93.63;40.53;;;7.30;99.90;;;;;;5035996;28;20024;-83
2023/04/10 00:39:08;;;;;;;91.18;39.05;;;7.20;99.90;;;;;;5036230;28;20025;-85
2023/04/10 00:41:34;;;;;;;86.07;37.83;;;7.20;99.90;;;;;;5025676;28;20029;-83
2023/04/10 00:44:00;;;;;;;81.28;36.90;;;7.10;99.90;;;;;;5028412;28;20482;-83
2023/04/10 00:46:26;;;;;;;78.13;37.45;;;7.10;99.90;;;;;;5054886;28;20024;-84
2023/04/10 00:48:53;;;;;;;87.13;36.60;;;7.00;99.90;;;;;;5029255;28;20026;-84
2023/04/10 00:51:20;;;;;;;85.93;37.97;;;7.00;99.90;;;;;;5050050;28;20032;-83
2023/04/10 00:53:50;;;;;;;88.85;36.30;;;7.00;99.90;;;;;;5042860;28;20039;-85
2023/04/10 00:56:17;;;;;;;82.10;35.67;;;7.00;99.90;;;;;;5022667;28;20032;-84
2023/04/10 00:58:44;;;;;;;79.03;36.40;;;6.90;99.90;;;;;;5040432;28;20079;-83
2023/04/10 01:01:10;;;;;;;77.13;35.92;;;6.90;99.90;;;;;;5046874;28;20152;-84
2023/04/10 01:03:38;;;;;;;78.57;34.90;;;6.90;99.90;;;;;;5042938;28;20041;-83
2023/04/10 01:06:28;;;;;;;74.80;32.90;;;6.90;99.90;;;;;;5040950;28;20021;-84
2023/04/10 01:09:33;;;;;;;73.72;32.42;;;6.90;99.90;;;;;;5028301;28;20016;-83
2023/04/10 01:12:14;;;;;;;61.92;27.77;;;6.90;99.90;;;;;;5027226;28;20375;-85
2023/04/10 01:14:57;;;;;;;72.13;37.70;;;6.80;99.90;;;;;;5046496;28;20845;-84
2023/04/10 01:17:47;;;;;;;63.25;31.08;;;6.90;99.90;;;;;;5045324;28;20422;-83
2023/04/10 01:20:28;;;;;;;71.13;32.45;;;6.80;99.90;;;;;;5045894;28;20025;-83
2023/04/10 01:23:08;;;;;;;73.43;32.30;;;6.80;99.90;;;;;;5036895;28;20021;-83
2023/04/10 01:25:48;;;;;;;67.45;30.17;;;6.80;99.90;;;;;;5039828;28;20459;-83
2023/04/10 01:28:42;;;;;;;69.50;30.52;;;6.80;99.90;;;;;;5022697;28;20025;-83
2023/04/10 01:31:14;;;;;;;66.22;29.63;;;6.80;99.90;;;;;;5025377;28;20037;-83
2023/04/10 01:33:46;;;;;;;62.40;27.55;;;6.80;99.90;;;;;;5021207;28;20034;-83
2023/04/10 01:36:21;;;;;;;64.72;28.48;;;6.80;99.90;;;;;;5025655;28;21652;-82
2023/04/10 01:38:49;;;;;;;63.17;28.73;;;6.70;99.90;;;;;;5042351;28;20040;-82
2023/04/10 01:41:17;;;;;;;66.97;28.38;;;6.80;99.90;;;;;;5041761;28;20019;-82
2023/04/10 01:43:49;;;;;;;69.95;30.40;;;6.80;99.90;;;;;;5025581;28;20032;-84
2023/04/10 01:46:18;;;;;;;71.72;30.60;;;6.80;99.90;;;;;;5040745;28;20030;-83
2023/04/10 01:48:45;;;;;;;66.57;28.85;;;6.70;99.90;;;;;;5040236;28;20075;-83
2023/04/10 01:51:14;;;;;;;66.38;28.70;;;6.80;99.90;;;;;;5027166;28;20057;-84
2023/04/10 01:53:42;;;;;;;70.65;30.67;;;6.70;99.90;;;;;;5026561;28;20045;-84
2023/04/10 01:56:08;;;;;;;79.72;33.28;;;6.70;99.90;;;;;;5044410;28;20021;-83
2023/04/10 01:58:35;;;;;;;74.63;30.60;;;6.80;99.90;;;;;;5031844;28;20032;-84
2023/04/10 02:01:01;;;;;;;70.85;30.95;;;6.80;99.90;;;;;;5025544;28;20048;-84
2023/04/10 02:03:26;;;;;;;69.65;30.52;;;6.80;99.90;;;;;;5022407;28;20464;-83
2023/04/10 02:06:25;;;;;;;62.33;27.73;;;6.80;99.90;;;;;;5039984;28;20029;-83
2023/04/10 02:09:14;;;;;;;90.28;32.85;;;6.80;99.90;;;;;;5019478;28;20115;-83
2023/04/10 02:11:57;;;;;;;65.72;28.25;;;6.80;99.90;;;;;;5048242;28;20025;-82
2023/04/10 02:14:27;;;;;;;69.35;27.80;;;6.70;99.90;;;;;;5020784;28;20444;-83
2023/04/10 02:16:54;;;;;;;68.68;28.48;;;6.70;99.90;;;;;;5020468;28;20028;-84
2023/04/10 02:19:22;;;;;;;69.20;33.55;;;6.70;99.90;;;;;;5026517;28;20450;-84
2023/04/10 02:21:50;;;;;;;58.53;26.75;;;6.70;99.90;;;;;;5021727;28;20120;-83
2023/04/10 02:24:16;;;;;;;54.88;26.15;;;6.60;99.90;;;;;;5022459;28;20025;-83
2023/04/10 02:26:47;;;;;;;62.65;27.98;;;6.60;99.90;;;;;;5040321;28;20025;-82
2023/04/10 02:29:13;;;;;;;55.92;26.35;;;6.60;99.90;;;;;;5047231;28;20013;-83
2023/04/10 02:31:40;;;;;;;55.92;24.88;;;6.60;99.90;;;;;;5028672;28;20446;-83
2023/04/10 02:34:06;;;;;;;55.53;26.52;;;6.60;99.90;;;;;;5044568;28;20440;-83
2023/04/10 02:36:34;;;;;;;55.30;25.08;;;6.60;99.90;;;;;;5024792;28;20025;-84
2023/04/10 02:39:00;;;;;;;55.80;23.98;;;6.60;99.90;;;;;;5048567;28;20474;-85
2023/04/10 02:41:25;;;;;;;52.65;24.25;;;6.60;99.90;;;;;;5029224;28;20021;-84
2023/04/10 02:43:51;;;;;;;46.17;22.67;;;6.60;99.90;;;;;;5044183;28;20029;-82
2023/04/10 02:46:17;;;;;;;46.38;22.83;;;6.60;99.90;;;;;;5027594;28;20022;-83
2023/04/10 02:48:42;;;;;;;50.30;21.98;;;6.70;99.90;;;;;;5031325;28;20368;-84
2023/04/10 02:51:08;;;;;;;45.05;22.17;;;6.60;99.90;;;;;;5025080;28;20448;-83
2023/04/10 02:53:34;;;;;;;49.90;24.45;;;6.60;99.90;;;;;;5047118;28;20120;-83
2023/04/10 02:56:01;;;;;;;49.90;22.92;;;6.70;99.90;;;;;;5027518;28;20021;-83
2023/04/10 02:58:28;;;;;;;45.95;22.35;;;6.70;99.90;;;;;;5025529;28;20040;-83
2023/04/10 03:00:55;;;;;;;48.78;21.77;;;6.70;99.90;;;;;;5045539;28;20440;-84
2023/04/10 03:03:21;;;;;;;49.05;22.20;;;6.70;99.90;;;;;;5029604;28;20038;-83
2023/04/10 03:05:48;;;;;;;44.55;22.27;;;6.60;99.90;;;;;;5029350;28;20090;-83
2023/04/10 03:08:14;;;;;;;49.70;23.60;;;6.70;99.90;;;;;;5026631;28;20459;-84
2023/04/10 03:10:42;;;;;;;47.30;22.75;;;6.70;99.90;;;;;;5024045;28;20021;-84
2023/04/10 03:13:08;;;;;;;52.65;23.65;;;6.70;99.90;;;;;;5029582;28;20116;-85
2023/04/10 03:15:34;;;;;;;45.60;21.63;;;6.70;99.90;;;;;;5028047;28;20107;-85
2023/04/10 03:17:59;;;;;;;45.10;21.15;;;6.70;99.90;;;;;;5026211;28;20033;-84
2023/04/10 03:20:25;;;;;;;41.75;20.15;;;6.70;99.90;;;;;;5026055;28;20035;-85
2023/04/10 03:22:51;;;;;;;44.33;20.92;;;6.70;99.90;;;;;;5047235;28;20021;-83
2023/04/10 03:25:17;;;;;;;45.60;21.45;;;6.60;99.90;;;;;;5046062;28;20063;-84
2023/04/10 03:27:42;;;;;;;41.92;20.08;;;6.70;99.90;;;;;;5026292;28;20017;-84
2023/04/10 03:30:08;;;;;;;41.00;20.92;;;6.70;99.90;;;;;;5041713;28;20051;-84
2023/04/10 03:32:34;;;;;;;42.65;20.77;;;6.70;99.90;;;;;;5027560;28;20032;-84
2023/04/10 03:35:00;;;;;;;45.33;24.15;;;6.70;99.90;;;;;;5030723;28;20028;-83
2023/04/10 03:37:28;;;;;;;44.63;22.58;;;6.70;99.90;;;;;;5051296;28;20073;-84
2023/04/10 03:39:54;;;;;;;43.42;22.95;;;6.70;99.90;;;;;;5026353;28;20025;-83
2023/04/10 03:42:20;;;;;;;48.85;21.88;;;6.70;99.90;;;;;;5027670;28;20029;-84
2023/04/10 03:44:45;;;;;;;43.17;22.02;;;6.70;99.90;;;;;;5025353;28;20025;-83
2023/04/10 03:47:12;;;;;;;51.30;24.55;;;6.70;99.90;;;;;;5031144;28;20029;-84
2023/04/10 03:49:38;;;;;;;52.85;24.48;;;6.70;99.90;;;;;;5024442;28;20087;-85
2023/04/10 03:52:03;;;;;;;53.55;25.98;;;6.70;99.90;;;;;;5029956;28;20411;-83
2023/04/10 03:54:29;;;;;;;50.17;24.73;;;6.60;99.90;;;;;;5024215;28;20045;-84
2023/04/10 03:56:56;;;;;;;52.13;25.95;;;6.60;99.90;;;;;;5038232;28;20014;-85
2023/04/10 03:59:21;;;;;;;55.33;25.60;;;6.60;99.90;;;;;;5042409;28;20051;-85
2023/04/10 04:01:47;;;;;;;52.83;25.67;;;6.60;99.90;;;;;;5027776;28;20379;-84
2023/04/10 04:04:13;;;;;;;51.88;25.40;;;6.60;99.90;;;;;;5025566;28;20082;-84
2023/04/10 04:06:39;;;;;;;45.58;22.92;;;6.60;99.90;;;;;;5041211;28;20478;-83
2023/04/10 04:09:05;;;;;;;45.70;22.25;;;6.60;99.90;;;;;;5021926;28;20029;-84
2023/04/10 04:11:31;;;;;;;46.90;22.67;;;6.50;99.90;;;;;;5028581;28;20021;-83
2023/04/10 04:13:56;;;;;;;55.08;26.67;;;6.50;99.90;;;;;;5028893;28;20131;-84
2023/04/10 04:16:22;;;;;;;68.50;34.15;;;6.50;99.90;;;;;;5042938;28;20017;-84
2023/04/10 04:18:48;;;;;;;63.83;32.00;;;6.40;99.90;;;;;;5025536;28;20508;-84
2023/04/10 04:21:13;;;;;;;67.78;33.90;;;6.50;99.90;;;;;;5024044;28;20031;-84
2023/04/10 04:23:39;;;;;;;71.85;38.55;;;6.50;99.90;;;;;;5024024;28;20048;-85
2023/04/10 04:26:05;;;;;;;56.58;27.58;;;6.40;99.90;;;;;;5027713;28;20022;-84
2023/04/10 04:28:31;;;;;;;57.60;27.27;;;6.40;99.90;;;;;;5026446;28;20092;-84
2023/04/10 04:30:57;;;;;;;56.97;27.48;;;6.40;99.90;;;;;;5024962;28;20025;-84
2023/04/10 04:33:22;;;;;;;52.53;24.67;;;6.40;99.90;;;;;;5043274;28;20036;-84
2023/04/10 04:35:49;;;;;;;59.80;26.38;;;6.50;99.90;;;;;;5044882;28;20333;-85
2023/04/10 04:38:15;;;;;;;58.20;28.08;;;6.50;99.90;;;;;;5027540;28;20028;-85
2023/04/10 04:40:41;;;;;;;58.08;27.02;;;6.50;99.90;;;;;;5025464;28;20452;-84
2023/04/10 04:43:07;;;;;;;59.90;29.15;;;6.50;99.90;;;;;;5024309;28;20029;-85
2023/04/10 04:45:33;;;;;;;64.80;29.23;;;6.50;99.90;;;;;;5047563;28;20032;-84
2023/04/10 04:47:58;;;;;;;52.55;25.83;;;6.50;99.90;;;;;;5033058;28;20040;-85
2023/04/10 04:50:24;;;;;;;53.13;25.92;;;6.40;99.90;;;;;;5025191;28;20109;-85
2023/04/10 04:52:50;;;;;;;53.58;24.77;;;6.50;99.90;;;;;;5038002;28;20029;-84
2023/04/10 04:55:15;;;;;;;47.22;22.95;;;6.50;99.90;;;;;;5048367;28;20044;-85
2023/04/10 04:57:41;;;;;;;50.20;26.35;;;6.50;99.90;;;;;;5038943;28;20029;-83
2023/04/10 05:00:07;;;;;;;51.20;24.58;;;6.40;99.90;;;;;;5028883;28;20021;-82
2023/04/10 05:02:33;;;;;;;56.30;27.83;;;6.40;99.90;;;;;;5031556;28;20415;-83
2023/04/10 05:04:59;;;;;;;57.15;27.48;;;6.40;99.90;;;;;;5047834;28;20078;-83
2023/04/10 05:07:25;;;;;;;57.90;29.20;;;6.40;99.90;;;;;;5040733;28;20362;-82
2023/04/10 05:09:51;;;;;;;58.25;28.83;;;6.50;99.90;;;;;;5025506;28;20021;-87
2023/04/10 05:12:17;;;;;;;58.53;29.20;;;6.40;99.90;;;;;;5028280;28;20029;-85
2023/04/10 05:14:43;;;;;;;54.63;26.45;;;6.50;99.90;;;;;;5023565;28;20344;-85
2023/04/10 05:17:11;;;;;;;55.63;29.30;;;6.50;99.90;;;;;;5028329;28;20029;-85
2023/04/10 05:19:37;;;;;;;53.70;27.20;;;6.50;99.90;;;;;;5024700;28;20037;-86
2023/04/10 05:22:03;;;;;;;59.92;27.63;;;6.50;99.90;;;;;;5027437;28;20424;-85
2023/04/10 05:24:28;;;;;;;53.15;25.83;;;6.50;99.90;;;;;;5028490;28;20141;-87
2023/04/10 05:26:54;;;;;;;54.63;26.25;;;6.50;99.90;;;;;;5029133;28;20028;-85
2023/04/10 05:29:20;;;;;;;55.65;27.58;;;6.40;99.90;;;;;;5024701;28;20414;-87
2023/04/10 05:31:45;;;;;;;54.25;25.35;;;6.50;99.90;;;;;;5022842;28;20116;-84
2023/04/10 05:34:11;;;;;;;49.20;25.25;;;6.50;99.90;;;;;;5027332;28;20359;-87
2023/04/10 05:36:37;;;;;;;53.25;27.08;;;6.50;99.90;;;;;;5027123;28;20460;-87
2023/04/10 05:39:03;;;;;;;61.30;29.50;;;6.60;99.90;;;;;;5024359;28;20033;-85
2023/04/10 05:41:28;;;;;;;62.80;30.67;;;6.70;99.90;;;;;;5024564;28;20075;-85
2023/04/10 05:43:54;;;;;;;46.80;26.30;;;6.70;99.90;;;;;;5024233;28;20028;-86
2023/04/10 05:46:20;;;;;;;53.13;26.42;;;6.80;99.90;;;;;;5040971;28;20014;-85
2023/04/10 05:48:45;;;;;;;45.42;23.52;;;6.80;99.90;;;;;;5030563;28;20037;-85
2023/04/10 05:51:11;;;;;;;46.95;24.60;;;6.80;99.90;;;;;;5026276;28;20456;-86
2023/04/10 05:53:37;;;;;;;52.97;25.73;;;6.80;99.90;;;;;;5021716;28;20038;-85
2023/04/10 05:56:03;;;;;;;46.05;23.45;;;6.80;99.90;;;;;;5024599;28;20029;-86
2023/04/10 05:58:29;;;;;;;49.88;25.73;;;6.90;99.90;;;;;;5043222;28;20017;-85
2023/04/10 06:00:55;;;;;;;51.47;27.40;;;6.90;99.90;;;;;;5036629;28;20081;-85
2023/04/10 06:03:21;;;;;;;53.25;34.50;;;6.90;99.90;;;;;;5020898;28;20021;-87
2023/04/10 06:05:47;;;;;;;51.20;28.63;;;7.00;99.90;;;;;;5027993;28;20030;-85
2023/04/10 06:08:12;;;;;;;53.80;28.30;;;7.00;99.90;;;;;;5024230;28;20025;-86
2023/04/10 06:10:38;;;;;;;52.78;35.28;;;7.00;99.90;;;;;;5020980;28;20034;-85
2023/04/10 06:13:04;;;;;;;47.28;26.25;;;7.00;99.90;;;;;;5026010;28;20376;-86
2023/04/10 06:15:29;;;;;;;47.35;27.40;;;7.10;99.90;;;;;;5022667;28;20057;-84
2023/04/10 06:17:55;;;;;;;42.75;24.10;;;7.00;99.90;;;;;;5031703;28;20032;-86
2023/04/10 06:20:21;;;;;;;48.83;27.65;;;7.20;99.90;;;;;;5023256;28;20368;-84
2023/04/10 06:22:47;;;;;;;41.28;22.33;;;7.10;99.90;;;;;;5025804;28;20118;-87
2023/04/10 06:25:13;;;;;;;46.83;27.50;;;7.10;99.90;;;;;;5026700;28;20025;-86
2023/04/10 06:27:38;;;;;;;48.63;28.20;;;7.20;99.90;;;;;;5027072;28;20017;-86
2023/04/10 06:30:05;;;;;;;46.22;23.80;;;7.20;99.90;;;;;;5025247;28;20025;-85
2023/04/10 06:32:30;;;;;;;45.08;23.73;;;7.30;99.90;;;;;;5022852;28;20108;-85
2023/04/10 06:34:56;;;;;;;53.22;28.27;;;7.20;99.90;;;;;;5021302;28;20059;-88
2023/04/10 06:37:30;;;;;;;47.70;25.92;;;7.30;99.90;;;;;;5027119;28;20076;-86
2023/04/10 06:40:10;;;;;;;50.08;24.23;;;7.20;99.90;;;;;;5026621;28;20018;-83
2023/04/10 06:42:36;;;;;;;49.15;24.42;;;7.10;99.90;;;;;;5032266;28;20025;-84
2023/04/10 06:45:03;;;;;;;50.85;25.65;;;7.10;99.90;;;;;;5023956;28;20436;-86
2023/04/10 06:47:30;;;;;;;46.50;23.85;;;7.10;99.90;;;;;;5032163;28;20026;-86
2023/04/10 06:49:56;;;;;;;46.60;24.02;;;7.00;99.90;;;;;;5026310;28;20069;-86
2023/04/10 06:52:21;;;;;;;47.33;24.85;;;7.00;99.90;;;;;;5023993;28;20031;-84
2023/04/10 06:54:47;;;;;;;57.03;29.77;;;7.10;99.90;;;;;;5026930;28;20045;-86
2023/04/10 06:57:13;;;;;;;52.70;27.42;;;7.10;99.90;;;;;;5019376;28;20025;-87
2023/04/10 06:59:39;;;;;;;52.80;24.83;;;7.20;99.90;;;;;;5022926;28;20022;-84
2023/04/10 07:02:04;;;;;;;48.67;24.50;;;7.20;99.90;;;;;;5022756;28;20033;-85
2023/04/10 07:04:31;;;;;;;53.65;27.33;;;7.20;99.90;;;;;;5034431;28;20030;-86
2023/04/10 07:06:57;;;;;;;46.40;24.02;;;7.30;99.90;;;;;;5046825;28;20036;-85
2023/04/10 07:09:26;;;;;;;44.20;23.10;;;7.20;99.90;;;;;;5027292;28;20037;-85
2023/04/10 07:11:52;;;;;;;41.72;22.00;;;7.40;99.90;;;;;;5025142;28;20021;-85
2023/04/10 07:14:18;;;;;;;46.67;24.75;;;7.40;99.90;;;;;;5019390;28;20116;-88
2023/04/10 07:16:44;;;;;;;43.72;21.77;;;7.50;99.90;;;;;;5019274;28;20109;-84
2023/04/10 07:19:09;;;;;;;54.35;25.27;;;7.70;99.90;;;;;;5030873;28;20029;-85
2023/04/10 07:21:35;;;;;;;38.80;22.02;;;7.80;99.90;;;;;;5035512;28;20020;-85
2023/04/10 07:24:01;;;;;;;45.30;22.80;;;7.80;99.90;;;;;;5034400;28;20033;-83
2023/04/10 07:26:27;;;;;;;45.83;22.15;;;7.80;99.90;;;;;;5026413;28;20040;-84
2023/04/10 07:28:53;;;;;;;51.47;25.05;;;7.80;99.90;;;;;;5021290;28;20025;-84
2023/04/10 07:31:18;;;;;;;44.30;23.30;;;7.90;99.90;;;;;;5023326;28;20022;-85
2023/04/10 07:33:47;;;;;;;45.15;22.83;;;7.90;99.90;;;;;;5020055;28;20053;-84
2023/04/10 07:36:13;;;;;;;46.22;22.48;;;7.80;99.90;;;;;;5022110;28;20025;-84
2023/04/10 07:38:40;;;;;;;54.50;24.00;;;7.90;99.90;;;;;;5035344;28;20025;-86
2023/04/10 07:41:06;;;;;;;42.92;22.00;;;8.10;99.90;;;;;;5028506;28;20471;-85
2023/04/10 07:43:32;;;;;;;41.22;23.00;;;8.00;99.90;;;;;;5023175;28;20086;-84
2023/04/10 07:45:57;;;;;;;38.70;20.70;;;7.90;99.90;;;;;;5020618;28;20057;-85
2023/04/10 07:48:23;;;;;;;44.13;22.00;;;8.00;99.90;;;;;;5017686;28;20433;-87
2023/04/10 07:50:49;;;;;;;44.35;22.17;;;8.00;99.90;;;;;;5025073;28;20038;-86
2023/04/10 07:53:15;;;;;;;47.33;22.83;;;8.00;99.90;;;;;;5017963;28;20049;-85
2023/04/10 07:55:48;;;;;;;47.60;24.40;;;8.10;99.90;;;;;;5034002;28;20021;-86
2023/04/10 07:58:15;;;;;;;40.13;22.05;;;8.10;99.90;;;;;;5045560;28;20021;-89
2023/04/10 08:00:41;;;;;;;44.10;21.92;;;8.10;99.90;;;;;;5045384;28;20452;-88
2023/04/10 08:03:07;;;;;;;42.92;25.30;;;7.90;99.90;;;;;;5034484;28;20025;-87
2023/04/10 08:05:33;;;;;;;41.47;21.92;;;8.00;99.90;;;;;;5036132;28;20036;-87
2023/04/10 08:07:59;;;;;;;44.50;23.23;;;8.00;99.90;;;;;;5036226;28;20375;-88
2023/04/10 08:10:25;;;;;;;46.50;23.08;;;7.90;99.90;;;;;;5042150;28;20473;-85
2023/04/10 08:12:50;;;;;;;47.47;24.17;;;8.00;99.90;;;;;;5045359;28;20033;-86
2023/04/10 08:15:22;;;;;;;46.10;23.35;;;8.10;99.90;;;;;;5036484;28;20020;-87
2023/04/10 08:17:48;;;;;;;49.10;24.08;;;8.20;99.90;;;;;;5036662;28;20072;-85
2023/04/10 08:20:17;;;;;;;51.83;28.23;;;8.30;99.90;;;;;;5036558;28;20084;-85
2023/04/10 08:22:43;;;;;;;85.38;38.05;;;8.50;99.90;;;;;;5036049;28;20037;-86
2023/04/10 08:25:09;;;;;;;58.42;30.58;;;8.60;99.90;;;;;;5036413;28;20032;-86
2023/04/10 08:27:35;;;;;;;45.63;22.08;;;8.70;99.90;;;;;;5053227;28;20340;-86
2023/04/10 08:30:00;;;;;;;48.28;23.13;;;8.70;99.90;;;;;;5042453;28;20035;-86
2023/04/10 08:32:28;;;;;;;88.70;36.95;;;8.70;99.90;;;;;;5036308;28;20111;-86
2023/04/10 08:34:53;;;;;;;109.93;46.88;;;8.90;99.90;;;;;;5054278;28;20052;-87
2023/04/10 08:37:20;;;;;;;56.00;25.92;;;9.00;99.90;;;;;;5053924;28;20056;-86
2023/04/10 08:39:46;;;;;;;53.35;24.33;;;9.00;99.90;;;;;;5036190;28;20030;-83
2023/04/10 08:42:11;;;;;;;69.35;33.95;;;9.00;99.90;;;;;;5054049;28;20033;-85
2023/04/10 08:44:38;;;;;;;59.58;30.40;;;9.10;99.90;;;;;;5047566;28;20116;-82
2023/04/10 08:47:05;;;;;;;47.95;24.75;;;9.30;99.90;;;;;;5047120;28;20355;-82
2023/04/10 08:49:34;;;;;;;50.38;25.80;;;9.30;99.90;;;;;;5032209;28;20036;-82
2023/04/10 08:52:03;;;;;;;45.20;22.95;;;9.50;99.90;;;;;;5024664;28;20380;-81
2023/04/10 08:54:33;;;;;;;58.97;30.95;;;9.50;99.90;;;;;;5024112;28;20049;-83
2023/04/10 08:57:00;;;;;;;43.33;21.90;;;9.60;99.90;;;;;;5024755;28;20113;-82
2023/04/10 08:59:30;;;;;;;45.83;23.15;;;9.70;99.90;;;;;;5027675;28;20037;-84
2023/04/10 09:01:56;;;;;;;46.95;21.90;;;9.80;99.90;;;;;;5025670;28;20367;-82
2023/04/10 09:04:23;;;;;;;42.92;21.00;;;9.80;99.90;;;;;;5040450;28;20071;-83
2023/04/10 09:06:49;;;;;;;47.88;22.42;;;10.00;99.90;;;;;;5040729;28;20033;-82
2023/04/10 09:09:15;;;;;;;48.85;22.02;;;10.00;99.90;;;;;;5023056;28;20032;-84
2023/04/10 09:11:59;;;;;;;42.65;21.10;;;10.20;99.90;;;;;;5026894;28;20033;-82
2023/04/10 09:14:27;;;;;;;39.92;19.35;;;10.40;99.90;;;;;;5027077;28;20087;-83
2023/04/10 09:17:08;;;;;;;45.40;20.55;;;10.30;99.90;;;;;;5023839;28;20475;-83
2023/04/10 09:19:34;;;;;;;44.07;22.80;;;10.30;99.90;;;;;;5022917;28;20041;-83
2023/04/10 09:22:00;;;;;;;48.17;22.88;;;10.50;99.90;;;;;;5030330;28;20071;-84
2023/04/10 09:24:26;;;;;;;48.60;23.85;;;10.60;99.90;;;;;;5053560;28;20033;-84
2023/04/10 09:26:52;;;;;;;34.05;19.95;;;10.90;99.90;;;;;;5050070;28;20028;-83
2023/04/10 09:29:18;;;;;;;42.15;20.52;;;10.90;99.90;;;;;;5053556;28;20083;-84
2023/04/10 09:31:44;;;;;;;36.78;20.10;;;11.00;99.90;;;;;;5035349;28;20054;-84
2023/04/10 09:34:18;;;;;;;39.40;20.15;;;11.00;99.90;;;;;;5046476;28;20029;-83
2023/04/10 09:36:56;;;;;;;40.15;20.73;;;11.10;99.90;;;;;;5027793;28;20018;-83
2023/04/10 09:39:39;;;;;;;38.25;20.42;;;11.20;99.90;;;;;;5033941;28;20028;-84
2023/04/10 09:42:08;;;;;;;36.42;19.38;;;11.60;99.90;;;;;;5036027;28;20029;-84
2023/04/10 09:44:36;;;;;;;37.60;19.23;;;11.80;99.90;;;;;;5042113;28;20033;-83
2023/04/10 09:47:19;;;;;;;42.17;21.00;;;11.80;99.90;;;;;;5043262;28;20017;-83
2023/04/10 09:49:55;;;;;;;43.10;21.75;;;12.00;99.90;;;;;;5039586;28;20021;-84
2023/04/10 09:52:23;;;;;;;32.10;17.38;;;12.20;99.90;;;;;;5038788;28;20451;-86
2023/04/10 09:54:49;;;;;;;34.08;18.73;;;12.00;99.90;;;;;;5044499;28;20400;-83
2023/04/10 09:57:20;;;;;;;34.05;18.40;;;11.80;99.90;;;;;;5057283;28;20151;-86
2023/04/10 09:59:59;;;;;;;45.25;22.67;;;11.90;99.90;;;;;;5032124;28;20025;-85
2023/04/10 10:02:30;;;;;;;40.53;19.95;;;12.10;99.90;;;;;;5049253;28;20064;-85
2023/04/10 10:04:59;;;;;;;34.78;19.02;;;12.20;99.90;;;;;;5036134;28;20030;-85
2023/04/10 10:07:26;;;;;;;39.65;20.73;;;12.00;99.90;;;;;;5030316;28;20028;-85
2023/04/10 10:09:52;;;;;;;36.92;18.85;;;12.30;99.90;;;;;;5033320;28;20023;-83
2023/04/10 10:12:44;;;;;;;37.45;19.90;;;12.40;99.90;;;;;;5030070;28;20044;-83
2023/04/10 10:15:18;;;;;;;37.75;20.08;;;12.40;99.90;;;;;;5030567;28;20029;-84
2023/04/10 10:18:00;;;;;;;35.35;18.83;;;12.40;99.90;;;;;;5024739;28;20029;-86
2023/04/10 10:20:27;;;;;;;35.58;17.95;;;12.30;99.90;;;;;;5049098;28;20021;-85
2023/04/10 10:22:53;;;;;;;40.05;20.05;;;12.30;99.90;;;;;;5025213;28;20112;-86
2023/04/10 10:25:19;;;;;;;45.83;22.38;;;12.30;99.90;;;;;;5026769;28;20033;-83
2023/04/10 10:27:48;;;;;;;34.83;19.35;;;12.40;99.90;;;;;;5029525;28;20032;-86
2023/04/10 10:30:17;;;;;;;32.03;17.85;;;12.40;99.90;;;;;;5029167;28;20083;-85
2023/04/10 10:32:44;;;;;;;35.50;19.05;;;12.30;99.90;;;;;;5044381;28;20375;-83
2023/04/10 10:35:11;;;;;;;54.25;24.23;;;12.20;99.90;;;;;;5030296;28;20028;-83
2023/04/10 10:37:37;;;;;;;35.88;19.52;;;12.20;99.90;;;;;;5021786;28;20028;-86
2023/04/10 10:40:25;;;;;;;35.28;18.50;;;12.40;99.90;;;;;;5045459;28;20048;-85
2023/04/10 10:43:22;;;;;;;44.42;20.83;;;12.30;99.90;;;;;;5049973;28;20029;-85
2023/04/10 10:46:00;;;;;;;99.05;43.20;;;12.90;99.90;;;;;;5019690;28;20052;-86
2023/04/10 10:48:26;;;;;;;53.60;28.92;;;13.90;99.10;;;;;;5044758;28;20021;-85
2023/04/10 10:50:55;;;;;;;39.05;22.05;;;14.30;98.00;;;;;;5037338;28;20029;-86
2023/04/10 10:53:42;;;;;;;32.38;17.80;;;14.50;94.00;;;;;;5045493;28;20032;-85
2023/04/10 10:56:17;;;;;;;40.13;20.23;;;15.30;92.30;;;;;;5035623;28;20028;-87
2023/04/10 10:58:47;;;;;;;37.30;20.48;;;15.60;89.50;;;;;;5044736;28;20021;-84
2023/04/10 11:01:13;;;;;;;34.03;19.08;;;16.40;89.50;;;;;;5056036;28;20498;-84
2023/04/10 11:03:43;;;;;;;32.78;17.58;;;16.20;80.20;;;;;;5037825;28;20078;-89
2023/04/10 11:06:11;;;;;;;38.60;20.80;;;16.60;82.50;;;;;;5038233;28;20071;-87
2023/04/10 11:08:48;;;;;;;31.33;18.50;;;15.90;84.00;;;;;;5038218;28;20021;-84
2023/04/10 11:11:22;;;;;;;47.78;24.23;;;15.20;82.90;;;;;;5046443;28;20021;-85
2023/04/10 11:13:56;;;;;;;34.72;20.02;;;15.90;86.80;;;;;;5039202;28;20115;-85
2023/04/10 11:16:42;;;;;;;32.92;19.17;;;15.80;84.60;;;;;;5057966;28;20021;-86
2023/04/10 11:19:20;;;;;;;36.65;21.48;;;15.20;82.60;;;;;;5018428;28;20033;-87
2023/04/10 11:22:06;;;;;;;43.35;22.33;;;14.90;84.40;;;;;;5017990;28;20163;-86
2023/04/10 11:24:52;;;;;;;45.63;23.25;;;14.50;85.60;;;;;;5035797;28;20072;-87
2023/04/10 11:27:50;;;;;;;37.53;21.95;;;14.30;86.50;;;;;;5035468;28;20063;-85
2023/04/10 11:30:33;;;;;;;41.33;21.73;;;14.10;90.00;;;;;;5035769;28;20018;-85
2023/04/10 11:33:00;;;;;;;27.83;17.00;;;14.70;89.70;;;;;;5036005;28;20399;-85
2023/04/10 11:35:30;;;;;;;36.42;19.60;;;15.10;88.10;;;;;;5053639;28;20017;-84
2023/04/10 11:38:18;;;;;;;30.10;17.65;;;15.00;86.00;;;;;;5037320;28;20032;-86
2023/04/10 11:41:00;;;;;;;37.15;20.73;;;14.90;86.60;;;;;;5037124;28;20074;-83
2023/04/10 11:43:28;;;;;;;42.47;21.02;;;15.10;88.70;;;;;;5052201;28;20036;-85
2023/04/10 11:46:02;;;;;;;39.58;20.55;;;14.90;85.60;;;;;;5044891;28;20110;-84
2023/04/10 11:48:29;;;;;;;39.67;19.95;;;14.90;86.20;;;;;;5044861;28;20029;-83
2023/04/10 11:50:58;;;;;;;35.58;21.15;;;14.80;87.30;;;;;;5037273;28;20017;-87
2023/04/10 11:53:25;;;;;;;34.85;19.33;;;14.60;88.50;;;;;;5041297;28;20370;-83
2023/04/10 11:55:51;;;;;;;41.92;21.65;;;14.60;88.50;;;;;;5055119;28;20024;-84
2023/04/10 11:58:31;;;;;;;33.58;18.75;;;14.50;88.40;;;;;;5037112;28;20017;-84
2023/04/10 12:01:04;;;;;;;33.75;19.08;;;14.60;88.10;;;;;;5016950;28;20367;-85
2023/04/10 12:03:35;;;;;;;29.73;17.70;;;15.00;86.80;;;;;;5035721;28;20029;-84
2023/04/10 12:06:02;;;;;;;39.53;18.67;;;15.20;85.70;;;;;;5070997;28;20032;-84
2023/04/10 12:08:46;;;;;;;34.80;19.85;;;15.50;86.20;;;;;;5061356;28;20048;-87
2023/04/10 12:11:15;;;;;;;36.63;19.10;;;15.10;83.50;;;;;;5037019;28;20068;-87
2023/04/10 12:13:41;;;;;;;34.00;18.58;;;15.10;85.60;;;;;;5026433;28;20384;-88
2023/04/10 12:16:08;;;;;;;29.80;19.00;;;15.60;86.80;;;;;;5031238;28;20021;-85
2023/04/10 12:18:37;;;;;;;29.98;18.15;;;15.20;84.70;;;;;;5051736;28;20025;-85
2023/04/10 12:21:13;;;;;;;34.20;19.67;;;14.60;86.10;;;;;;5036362;28;20017;-87
2023/04/10 12:23:44;;;;;;;34.75;18.85;;;14.50;88.30;;;;;;5036892;28;20036;-85
2023/04/10 12:26:13;;;;;;;36.08;20.33;;;13.90;91.20;;;;;;5054279;28;20033;-86
2023/04/10 12:28:54;;;;;;;39.33;21.65;;;13.30;93.80;;;;;;5035835;28;20037;-86
2023/04/10 12:31:31;;;;;;;39.65;22.17;;;13.20;99.30;;;;;;5054508;28;20021;-86
2023/04/10 12:33:57;;;;;;;34.83;19.80;;;13.10;99.90;;;;;;5053886;28;20380;-87
2023/04/10 12:36:28;;;;;;;34.97;19.73;;;13.10;99.90;;;;;;5036457;28;20020;-85
2023/04/10 12:38:59;;;;;;;38.22;19.98;;;13.20;99.90;;;;;;5036572;28;20367;-86
2023/04/10 12:41:28;;;;;;;33.03;18.40;;;13.20;99.90;;;;;;5036000;28;20447;-86